createdAt,value
2023-05-25T00:01:54.516Z,102521.38
2023-05-25T00:04:27.112Z,102517.00
2023-05-25T00:06:55.199Z,102506.50
2023-05-25T00:09:25.768Z,102511.75
2023-05-25T00:11:53.753Z,102511.75
2023-05-25T00:14:21.733Z,102508.25
2023-05-25T00:16:51.206Z,102515.25
2023-05-25T00:19:19.641Z,102521.41
2023-05-25T00:21:48.778Z,102518.75
2023-05-25T00:24:16.881Z,102517.03
2023-05-25T00:26:46.218Z,102517.91
2023-05-25T00:29:15.007Z,102512.66
2023-05-25T00:31:43.014Z,102522.31
2023-05-25T00:34:10.991Z,102529.28
2023-05-25T00:36:39.171Z,102519.66
2023-05-25T00:39:07.153Z,102516.16
2023-05-25T00:41:35.084Z,102515.28
2023-05-25T00:44:04.550Z,102518.81
2023-05-25T00:46:34.374Z,102506.53
2023-05-25T00:49:02.358Z,102510.03
2023-05-25T00:51:32.978Z,102510.03
2023-05-25T00:54:00.986Z,102510.03
2023-05-25T00:56:32.128Z,102505.66
2023-05-25T00:59:04.566Z,102517.91
2023-05-25T01:01:39.975Z,102521.44
2023-05-25T01:04:09.734Z,102508.25
2023-05-25T01:06:38.212Z,102520.56
2023-05-25T01:09:07.048Z,102521.41
2023-05-25T01:11:36.277Z,102523.19
2023-05-25T01:14:04.494Z,102527.53
2023-05-25T01:16:34.000Z,102522.28
2023-05-25T01:19:02.333Z,102529.28
2023-05-25T01:21:37.908Z,102527.56
2023-05-25T01:24:09.589Z,102538.06
2023-05-25T01:26:40.709Z,102533.69
2023-05-25T01:29:09.107Z,102536.31
2023-05-25T01:31:37.210Z,102532.81
2023-05-25T01:34:05.294Z,102523.16
2023-05-25T01:36:34.686Z,102524.94
2023-05-25T01:39:02.620Z,102526.69
2023-05-25T01:41:31.650Z,102526.69
2023-05-25T01:43:59.616Z,102517.94
2023-05-25T01:46:32.154Z,102522.31
2023-05-25T01:49:04.091Z,102523.19
2023-05-25T01:51:33.530Z,102520.56
2023-05-25T01:54:06.590Z,102522.31
2023-05-25T01:56:34.546Z,102519.69
2023-05-25T01:59:03.124Z,102524.06
2023-05-25T02:01:31.210Z,102520.56
2023-05-25T02:03:59.259Z,102522.31
2023-05-25T02:06:27.245Z,102528.44
2023-05-25T02:08:55.246Z,102528.44
2023-05-25T02:11:24.556Z,102530.22
2023-05-25T02:13:52.565Z,102537.19
2023-05-25T02:16:20.533Z,102534.56
2023-05-25T02:18:48.560Z,102531.06
2023-05-25T02:21:16.582Z,102539.84
2023-05-25T02:23:44.568Z,102539.84
2023-05-25T02:26:12.623Z,102536.31
2023-05-25T02:28:41.982Z,102536.31
2023-05-25T02:31:09.958Z,102538.06
2023-05-25T02:33:37.956Z,102537.19
2023-05-25T02:36:06.399Z,102543.34
2023-05-25T02:38:34.354Z,102538.09
2023-05-25T02:41:02.342Z,102534.59
2023-05-25T02:43:30.311Z,102535.44
2023-05-25T02:45:59.756Z,102538.97
2023-05-25T02:48:27.703Z,102542.47
2023-05-25T02:50:55.690Z,102546.84
2023-05-25T02:53:23.765Z,102545.97
2023-05-25T02:55:51.703Z,102535.47
2023-05-25T02:58:19.663Z,102538.94
2023-05-25T03:00:47.732Z,102548.59
2023-05-25T03:03:17.160Z,102555.59
2023-05-25T03:05:45.403Z,102560.84
2023-05-25T03:08:13.479Z,102564.34
2023-05-25T03:10:41.564Z,102568.72
2023-05-25T03:13:09.557Z,102568.72
2023-05-25T03:15:37.542Z,102569.59
2023-05-25T03:18:05.777Z,102570.50
2023-05-25T03:20:35.225Z,102571.34
2023-05-25T03:23:03.310Z,102580.13
2023-05-25T03:25:31.477Z,102572.25
2023-05-25T03:27:59.495Z,102569.59
2023-05-25T03:30:27.476Z,102568.72
2023-05-25T03:32:55.675Z,102576.59
2023-05-25T03:35:23.718Z,102569.59
2023-05-25T03:37:53.113Z,102573.13
2023-05-25T03:40:21.277Z,102577.47
2023-05-25T03:42:49.259Z,102574.84
2023-05-25T03:45:17.370Z,102573.97
2023-05-25T03:47:46.482Z,102580.97
2023-05-25T03:50:14.454Z,102580.09
2023-05-25T03:52:53.686Z,102586.22
2023-05-25T03:55:21.633Z,102580.09
2023-05-25T03:57:49.768Z,102583.59
2023-05-25T04:00:18.040Z,102576.59
2023-05-25T04:02:46.130Z,102583.59
2023-05-25T04:05:14.138Z,102583.63
2023-05-25T04:07:42.069Z,102578.34
2023-05-25T04:10:12.699Z,102583.59
2023-05-25T04:12:40.698Z,102589.75
2023-05-25T04:15:09.741Z,102590.59
2023-05-25T04:17:39.423Z,102587.09
2023-05-25T04:20:09.873Z,102588.84
2023-05-25T04:22:39.035Z,102593.25
2023-05-25T04:25:08.378Z,102592.38
2023-05-25T04:27:37.735Z,102595.00
2023-05-25T04:30:06.535Z,102594.09
2023-05-25T04:32:37.369Z,102600.25
2023-05-25T04:35:06.218Z,102599.38
2023-05-25T04:37:37.228Z,102599.38
2023-05-25T04:40:10.447Z,102594.09
2023-05-25T04:42:40.052Z,102602.00
2023-05-25T04:45:09.163Z,102596.72
2023-05-25T04:47:37.685Z,102600.25
2023-05-25T04:50:10.320Z,102598.50
2023-05-25T04:52:38.309Z,102613.38
2023-05-25T04:55:07.070Z,102605.50
2023-05-25T04:57:35.029Z,102612.50
2023-05-25T05:00:05.949Z,102613.38
2023-05-25T05:02:33.937Z,102616.00
2023-05-25T05:05:01.931Z,102619.50
2023-05-25T05:07:31.824Z,102621.28
2023-05-25T05:09:59.869Z,102628.28
2023-05-25T05:12:28.033Z,102622.16
2023-05-25T05:14:56.085Z,102626.53
2023-05-25T05:17:26.431Z,102624.78
2023-05-25T05:19:54.693Z,102630.91
2023-05-25T05:22:22.817Z,102629.19
2023-05-25T05:24:51.024Z,102637.91
2023-05-25T05:27:19.014Z,102634.41
2023-05-25T05:29:47.140Z,102633.53
2023-05-25T05:32:15.341Z,102633.53
2023-05-25T05:34:44.716Z,102632.66
2023-05-25T05:37:12.672Z,102632.63
2023-05-25T05:39:40.717Z,102628.25
2023-05-25T05:42:09.638Z,102637.91
2023-05-25T05:44:37.616Z,102634.38
2023-05-25T05:47:06.206Z,102639.66
2023-05-25T05:49:34.518Z,102638.78
2023-05-25T05:52:04.538Z,102650.16
2023-05-25T05:54:32.505Z,102650.19
2023-05-25T05:57:01.380Z,102644.94
2023-05-25T05:59:29.342Z,102653.69
2023-05-25T06:01:57.460Z,102650.16
2023-05-25T06:04:28.904Z,102658.03
2023-05-25T06:06:57.153Z,102658.03
2023-05-25T06:09:27.452Z,102662.44
2023-05-25T06:11:55.504Z,102658.06
2023-05-25T06:14:23.478Z,102662.47
2023-05-25T06:16:52.156Z,102658.09
2023-05-25T06:19:20.125Z,102665.97
2023-05-25T06:21:48.531Z,102662.44
2023-05-25T06:24:16.517Z,102665.06
2023-05-25T06:26:45.876Z,102674.72
2023-05-25T06:29:16.982Z,102671.22
2023-05-25T06:31:46.027Z,102680.88
2023-05-25T06:34:14.176Z,102676.47
2023-05-25T06:36:42.246Z,102674.75
2023-05-25T06:39:10.244Z,102674.75
2023-05-25T06:41:39.377Z,102681.75
2023-05-25T06:44:08.742Z,102673.88
2023-05-25T06:46:37.026Z,102674.75
2023-05-25T06:49:05.010Z,102680.88
2023-05-25T06:51:33.401Z,102679.13
2023-05-25T06:54:01.420Z,102680.00
2023-05-25T06:56:29.416Z,102683.50
2023-05-25T06:58:57.410Z,102682.63
2023-05-25T07:01:27.218Z,102687.03
2023-05-25T07:03:55.168Z,102700.19
2023-05-25T07:06:23.161Z,102692.28
2023-05-25T07:08:51.159Z,102690.53
2023-05-25T07:11:20.862Z,102688.75
2023-05-25T07:13:48.904Z,102685.28
2023-05-25T07:16:16.954Z,102692.28
2023-05-25T07:18:46.400Z,102686.16
2023-05-25T07:21:14.468Z,102690.53
2023-05-25T07:23:42.467Z,102694.03
2023-05-25T07:26:10.458Z,102692.28
2023-05-25T07:28:38.534Z,102695.81
2023-05-25T07:31:07.473Z,102701.09
2023-05-25T07:33:35.459Z,102700.22
2023-05-25T07:36:05.131Z,102697.59
2023-05-25T07:38:33.244Z,102700.19
2023-05-25T07:41:01.280Z,102697.56
2023-05-25T07:43:29.268Z,102702.84
2023-05-25T07:45:57.220Z,102708.97
2023-05-25T07:48:25.241Z,102712.50
2023-05-25T07:50:53.305Z,102702.84
2023-05-25T07:53:22.701Z,102702.84
2023-05-25T07:55:50.874Z,102700.22
2023-05-25T07:58:18.887Z,102711.59
2023-05-25T08:00:46.815Z,102710.72
2023-05-25T08:03:14.858Z,102706.34
2023-05-25T08:05:44.281Z,102711.63
2023-05-25T08:08:12.508Z,102709.84
2023-05-25T08:10:41.883Z,102718.63
2023-05-25T08:13:09.888Z,102719.50
2023-05-25T08:15:37.829Z,102723.03
2023-05-25T08:18:06.652Z,102730.00
2023-05-25T08:20:34.962Z,102728.25
2023-05-25T08:23:02.977Z,102738.81
2023-05-25T08:25:30.965Z,102729.16
2023-05-25T08:28:00.430Z,102730.91
2023-05-25T08:30:28.371Z,102734.41
2023-05-25T08:32:56.360Z,102743.19
2023-05-25T08:35:24.752Z,102741.44
2023-05-25T08:37:52.746Z,102739.66
2023-05-25T08:40:20.799Z,102737.91
2023-05-25T08:42:48.894Z,102748.44
2023-05-25T08:45:47.135Z,102737.91
2023-05-25T08:48:10.163Z,102741.41
2023-05-25T08:50:38.433Z,102743.16
2023-05-25T08:53:07.557Z,102744.94
2023-05-25T08:55:36.701Z,102744.94
2023-05-25T08:58:08.341Z,102743.16
2023-05-25T09:00:38.408Z,102751.09
2023-05-25T09:03:08.227Z,102758.09
2023-05-25T09:05:38.048Z,102746.66
2023-05-25T09:08:06.682Z,102764.22
2023-05-25T09:10:34.942Z,102761.59
2023-05-25T09:13:16.551Z,102768.63
2023-05-25T09:15:50.688Z,102756.31
2023-05-25T09:18:18.861Z,102753.72
2023-05-25T09:20:47.541Z,102767.75
2023-05-25T09:23:16.286Z,102766.84
2023-05-25T09:25:44.288Z,102763.34
2023-05-25T09:30:43.356Z,102777.38
2023-05-25T09:33:13.486Z,102773.88
2023-05-25T09:35:41.633Z,102771.22
2023-05-25T09:38:09.738Z,102773.00
2023-05-25T09:40:39.302Z,102774.75
2023-05-25T09:43:07.261Z,102782.63
2023-05-25T09:45:38.066Z,102782.63
2023-05-25T09:48:07.204Z,102785.28
2023-05-25T09:50:37.314Z,102776.50
2023-05-25T09:53:05.382Z,102781.75
2023-05-25T09:55:48.166Z,102785.25
2023-05-25T09:58:20.929Z,102781.75
2023-05-25T10:00:48.879Z,102787.03
2023-05-25T10:03:17.104Z,102785.28
2023-05-25T10:05:46.641Z,102781.75
2023-05-25T10:08:14.626Z,102795.78
2023-05-25T10:10:42.889Z,102794.94
2023-05-25T10:13:11.531Z,102787.91
2023-05-25T10:15:39.798Z,102794.03
2023-05-25T10:18:08.068Z,102799.31
2023-05-25T10:20:36.592Z,102801.06
2023-05-25T10:23:09.641Z,102795.78
2023-05-25T10:25:39.450Z,102805.44
2023-05-25T10:28:09.400Z,102795.81
2023-05-25T10:30:37.800Z,102802.81
2023-05-25T10:33:05.904Z,102801.06
2023-05-25T10:35:42.381Z,102794.03
2023-05-25T10:38:20.965Z,102783.53
2023-05-25T10:40:50.791Z,102791.41
2023-05-25T10:43:19.201Z,102795.81
2023-05-25T10:45:47.499Z,102789.66
2023-05-25T10:48:15.721Z,102794.06
2023-05-25T10:50:43.713Z,102795.81
2023-05-25T10:53:14.103Z,102787.03
2023-05-25T10:55:52.017Z,102792.28
2023-05-25T10:58:20.763Z,102804.59
2023-05-25T11:00:58.733Z,102795.78
2023-05-25T11:03:59.397Z,102792.28
2023-05-25T11:07:05.573Z,102788.75
2023-05-25T11:09:33.747Z,102794.91
2023-05-25T11:12:06.665Z,102790.50
2023-05-25T11:14:37.768Z,102785.25
2023-05-25T11:17:07.983Z,102792.28
2023-05-25T11:19:47.973Z,102785.25
2023-05-25T11:22:20.554Z,102794.03
2023-05-25T11:24:48.676Z,102787.00
2023-05-25T11:27:21.505Z,102785.28
2023-05-25T11:29:51.299Z,102783.50
2023-05-25T11:32:19.251Z,102778.25
2023-05-25T11:34:48.335Z,102778.25
2023-05-25T11:37:21.152Z,102780.84
2023-05-25T11:39:49.732Z,102766.81
2023-05-25T11:42:20.615Z,102776.47
2023-05-25T11:44:48.588Z,102779.97
2023-05-25T11:47:18.920Z,102769.44
2023-05-25T11:49:47.735Z,102775.56
2023-05-25T11:52:16.102Z,102759.75
2023-05-25T11:54:44.328Z,102777.31
2023-05-25T11:57:15.706Z,102776.44
2023-05-25T11:59:51.058Z,102773.78
2023-05-25T12:02:19.121Z,102775.56
2023-05-25T12:04:54.311Z,102762.38
2023-05-25T12:07:22.320Z,102773.78
2023-05-25T12:09:50.412Z,102770.25
2023-05-25T12:12:18.406Z,102770.25
2023-05-25T12:14:50.902Z,102764.09
2023-05-25T12:17:19.477Z,102765.84
2023-05-25T12:19:47.991Z,102754.41
2023-05-25T12:22:16.515Z,102764.06
2023-05-25T12:24:44.545Z,102767.56
2023-05-25T12:27:18.159Z,102772.81
2023-05-25T12:29:47.092Z,102760.50
2023-05-25T12:32:16.579Z,102758.75
2023-05-25T12:34:45.784Z,102760.50
2023-05-25T12:37:20.336Z,102761.34
2023-05-25T12:39:48.447Z,102762.22
2023-05-25T12:42:17.122Z,102763.09
2023-05-25T12:44:46.802Z,102757.81
2023-05-25T12:47:16.858Z,102762.19
2023-05-25T12:49:45.299Z,102763.06
2023-05-25T12:52:13.536Z,102759.53
2023-05-25T12:54:45.176Z,102758.69
2023-05-25T12:57:14.888Z,102760.38
2023-05-25T12:59:43.346Z,102747.19
2023-05-25T13:02:11.572Z,102750.66
2023-05-25T13:04:41.458Z,102746.28
2023-05-25T13:07:10.176Z,102742.69
2023-05-25T13:09:38.339Z,102741.84
2023-05-25T13:12:07.082Z,102747.97
2023-05-25T13:14:35.067Z,102744.41
2023-05-25T13:17:03.034Z,102747.06
2023-05-25T13:19:31.060Z,102748.81
2023-05-25T13:22:00.632Z,102739.13
2023-05-25T13:24:28.613Z,102739.13
2023-05-25T13:26:57.071Z,102749.69
2023-05-25T13:29:25.761Z,102747.00
2023-05-25T13:31:53.798Z,102732.94
2023-05-25T13:34:21.946Z,102745.19
2023-05-25T13:36:50.064Z,102746.91
2023-05-25T13:39:19.923Z,102739.00
2023-05-25T13:41:48.206Z,102737.25
2023-05-25T13:44:17.727Z,102734.59
2023-05-25T13:46:45.998Z,102739.00
2023-05-25T13:49:15.340Z,102737.25
2023-05-25T13:51:43.355Z,102741.63
2023-05-25T13:54:12.835Z,102749.47
2023-05-25T13:56:42.986Z,102742.44
2023-05-25T13:59:11.279Z,102738.06
2023-05-25T14:01:39.446Z,102737.19
2023-05-25T14:04:07.722Z,102730.97
2023-05-25T14:06:36.060Z,102737.09
2023-05-25T14:09:04.167Z,102728.28
2023-05-25T14:11:32.110Z,102739.72
2023-05-25T14:14:01.544Z,102737.06
2023-05-25T14:16:29.686Z,102725.56
2023-05-25T14:18:57.656Z,102733.38
2023-05-25T14:21:25.777Z,102726.09
2023-05-25T14:23:53.765Z,102718.59
2023-05-25T14:26:22.113Z,102710.94
2023-05-25T14:28:50.246Z,102713.28
2023-05-25T14:31:19.762Z,102709.28
2023-05-25T14:33:47.741Z,102717.84
2023-05-25T14:36:15.712Z,102711.56
2023-05-25T14:38:44.279Z,102710.00
2023-05-25T14:41:12.215Z,102718.25
2023-05-25T14:43:40.193Z,102711.63
2023-05-25T14:46:08.815Z,102725.88
2023-05-25T14:48:38.244Z,102726.03
2023-05-25T14:51:06.551Z,102721.91
2023-05-25T14:53:34.572Z,102709.44
2023-05-25T14:56:03.767Z,102716.72
2023-05-25T14:58:32.929Z,102713.06
2023-05-25T15:01:00.946Z,102709.09
2023-05-25T15:03:29.033Z,102713.78
2023-05-25T15:05:58.505Z,102720.09
2023-05-25T15:08:26.740Z,102713.06
2023-05-25T15:10:54.738Z,102719.25
2023-05-25T15:13:22.881Z,102716.47
2023-05-25T15:15:52.102Z,102711.94
2023-05-25T15:18:20.169Z,102710.25
2023-05-25T15:20:48.452Z,102706.81
2023-05-25T15:23:18.008Z,102708.53
2023-05-25T15:25:45.980Z,102708.50
2023-05-25T15:28:13.957Z,102708.47
2023-05-25T15:30:41.913Z,102713.75
2023-05-25T15:33:09.990Z,102710.25
2023-05-25T15:35:38.227Z,102704.00
2023-05-25T15:38:06.438Z,102702.09
2023-05-25T15:40:37.123Z,102704.81
2023-05-25T15:43:05.125Z,102708.47
2023-05-25T15:45:33.089Z,102713.91
2023-05-25T15:48:01.302Z,102708.91
2023-05-25T15:50:29.278Z,102709.06
2023-05-25T15:52:57.246Z,102713.53
2023-05-25T15:55:25.256Z,102708.31
2023-05-25T15:57:54.810Z,102703.97
2023-05-25T16:00:22.979Z,102711.91
2023-05-25T16:02:51.056Z,102709.22
2023-05-25T16:05:22.163Z,102703.00
2023-05-25T16:07:50.155Z,102704.84
2023-05-25T16:10:18.125Z,102710.13
2023-05-25T16:12:46.203Z,102709.34
2023-05-25T16:15:15.637Z,102710.19
2023-05-25T16:17:43.751Z,102704.91
2023-05-25T16:20:12.196Z,102713.72
2023-05-25T16:22:40.207Z,102712.84
2023-05-25T16:25:09.286Z,102709.41
2023-05-25T16:27:37.307Z,102705.03
2023-05-25T16:30:06.495Z,102713.88
2023-05-25T16:32:35.887Z,102718.34
2023-05-25T16:35:03.881Z,102720.13
2023-05-25T16:37:31.877Z,102720.19
2023-05-25T16:39:59.882Z,102716.69
2023-05-25T16:42:27.869Z,102714.94
2023-05-25T16:44:55.805Z,102722.03
2023-05-25T16:47:23.880Z,102717.59
2023-05-25T16:49:53.386Z,102715.81
2023-05-25T16:52:21.343Z,102725.41
2023-05-25T16:54:49.331Z,102723.63
2023-05-25T16:57:17.269Z,102720.88
2023-05-25T16:59:45.636Z,102722.59
2023-05-25T17:02:13.789Z,102719.84
2023-05-25T17:04:41.718Z,102716.22
2023-05-25T17:07:11.051Z,102718.78
2023-05-25T17:09:39.012Z,102716.06
2023-05-25T17:12:07.587Z,102723.91
2023-05-25T17:14:35.867Z,102723.00
2023-05-25T17:17:03.981Z,102727.38
2023-05-25T17:19:32.044Z,102725.59
2023-05-25T17:22:00.102Z,102722.94
2023-05-25T17:24:29.536Z,102722.88
2023-05-25T17:27:01.766Z,102729.00
2023-05-25T17:29:33.200Z,102733.34
2023-05-25T17:32:01.288Z,102725.34
2023-05-25T17:34:29.419Z,102725.31
2023-05-25T17:36:57.398Z,102720.84
2023-05-25T17:39:25.502Z,102722.53
2023-05-25T17:41:57.987Z,102726.03
2023-05-25T17:44:26.971Z,102728.66
2023-05-25T17:46:54.928Z,102725.94
2023-05-25T17:49:23.009Z,102725.03
2023-05-25T17:51:51.025Z,102733.03
2023-05-25T17:54:25.474Z,102735.63
2023-05-25T17:56:53.589Z,102736.53
2023-05-25T17:59:23.396Z,102743.56
2023-05-25T18:01:51.497Z,102741.63
2023-05-25T18:04:20.584Z,102746.06
2023-05-25T18:06:49.830Z,102747.91
2023-05-25T18:09:17.824Z,102750.66
2023-05-25T18:11:45.807Z,102738.34
2023-05-25T18:14:13.806Z,102741.03
2023-05-25T18:16:44.767Z,102748.16
2023-05-25T18:19:14.830Z,102743.81
2023-05-25T18:21:42.837Z,102744.75
2023-05-25T18:24:10.783Z,102744.81
2023-05-25T18:26:38.796Z,102748.34
2023-05-25T18:29:09.735Z,102749.28
2023-05-25T18:31:37.791Z,102753.75
2023-05-25T18:34:08.178Z,102760.84
2023-05-25T18:36:36.437Z,102752.97
2023-05-25T18:39:05.244Z,102758.28
2023-05-25T18:41:36.268Z,102761.81
2023-05-25T18:44:04.240Z,102761.88
2023-05-25T18:46:32.173Z,102766.38
2023-05-25T18:49:00.284Z,102767.31
2023-05-25T18:51:29.651Z,102770.06
2023-05-25T18:53:58.656Z,102771.06
2023-05-25T18:56:26.746Z,102780.84
2023-05-25T18:58:57.085Z,102779.97
2023-05-25T19:01:25.524Z,102775.63
2023-05-25T19:03:55.955Z,102785.38
2023-05-25T19:08:55.336Z,102783.75
2023-05-25T19:11:23.355Z,102785.59
2023-05-25T19:13:51.322Z,102790.06
2023-05-25T19:16:19.894Z,102786.66
2023-05-25T19:18:47.873Z,102786.72
2023-05-25T19:21:16.357Z,102787.72
2023-05-25T19:23:44.842Z,102786.03
2023-05-25T19:26:14.277Z,102791.41
2023-05-25T19:28:42.227Z,102795.88
2023-05-25T19:31:10.235Z,102795.03
2023-05-25T19:33:38.320Z,102792.47
2023-05-25T19:36:06.331Z,102788.03
2023-05-25T19:38:41.133Z,102789.00
2023-05-25T19:41:10.025Z,102789.91
2023-05-25T19:43:39.700Z,102790.84
2023-05-25T19:46:07.767Z,102785.63
2023-05-25T19:48:35.834Z,102798.84
2023-05-25T19:51:03.757Z,102805.03
2023-05-25T19:53:31.680Z,102806.84
2023-05-25T19:55:59.745Z,102810.41
2023-05-25T19:58:27.932Z,102810.41
2023-05-25T20:00:58.265Z,102814.78
2023-05-25T20:03:26.398Z,102820.97
2023-05-25T20:05:54.408Z,102823.66
2023-05-25T20:08:24.713Z,102821.91
2023-05-25T20:10:53.819Z,102820.19
2023-05-25T20:13:21.825Z,102822.84
2023-05-25T20:15:49.756Z,102817.53
2023-05-25T20:18:19.308Z,102822.81
2023-05-25T20:20:47.447Z,102821.97
2023-05-25T20:23:15.516Z,102830.78
2023-05-25T20:25:43.665Z,102825.50
2023-05-25T20:28:11.945Z,102831.66
2023-05-25T20:30:39.961Z,102831.69
2023-05-25T20:33:08.094Z,102846.63
2023-05-25T20:35:37.554Z,102838.75
2023-05-25T20:38:05.697Z,102845.75
2023-05-25T20:40:33.722Z,102844.00
2023-05-25T20:43:01.769Z,102844.00
2023-05-25T20:45:29.736Z,102845.78
2023-05-25T20:48:02.862Z,102840.50
2023-05-25T20:50:33.853Z,102844.88
2023-05-25T20:53:03.356Z,102844.91
2023-05-25T20:55:31.717Z,102848.44
2023-05-25T20:58:00.987Z,102844.91
2023-05-25T21:00:29.045Z,102846.69
2023-05-25T21:02:57.139Z,102840.53
2023-05-25T21:05:25.265Z,102852.84
2023-05-25T21:07:53.278Z,102853.69
2023-05-25T21:10:22.616Z,102848.47
2023-05-25T21:12:50.728Z,102843.19
2023-05-25T21:15:19.288Z,102854.63
2023-05-25T21:17:48.267Z,102845.81
2023-05-25T21:20:16.411Z,102845.81
2023-05-25T21:22:44.502Z,102844.06
2023-05-25T21:25:12.548Z,102843.19
2023-05-25T21:27:42.038Z,102842.31
2023-05-25T21:30:10.818Z,102842.31
2023-05-25T21:32:38.810Z,102847.59
2023-05-25T21:35:06.990Z,102856.38
2023-05-25T21:37:34.989Z,102852.00
2023-05-25T21:40:03.436Z,102854.63
2023-05-25T21:42:31.449Z,102858.13
2023-05-25T21:45:00.812Z,102855.50
2023-05-25T21:47:28.901Z,102858.13
2023-05-25T21:49:57.259Z,102853.75
2023-05-25T21:52:25.411Z,102860.72
2023-05-25T21:54:53.388Z,102858.09
2023-05-25T21:57:21.348Z,102868.66
2023-05-25T21:59:49.356Z,102869.50
2023-05-25T22:02:18.840Z,102868.63
2023-05-25T22:04:46.851Z,102871.28
2023-05-25T22:07:15.149Z,102871.25
2023-05-25T22:09:43.132Z,102867.75
2023-05-25T22:12:12.247Z,102868.63
2023-05-25T22:14:40.262Z,102876.53
2023-05-25T22:17:08.472Z,102877.41
2023-05-25T22:19:37.896Z,102876.53
2023-05-25T22:22:06.175Z,102880.91
2023-05-25T22:24:34.250Z,102872.13
2023-05-25T22:27:03.016Z,102873.00
2023-05-25T22:29:30.963Z,102874.75
2023-05-25T22:31:58.910Z,102873.00
2023-05-25T22:34:26.834Z,102873.00
2023-05-25T22:36:56.199Z,102874.75
2023-05-25T22:39:24.147Z,102878.28
2023-05-25T22:41:52.872Z,102869.50
2023-05-25T22:44:20.862Z,102871.25
2023-05-25T22:46:49.018Z,102877.41
2023-05-25T22:49:17.151Z,102873.88
2023-05-25T22:51:45.718Z,102873.88
2023-05-25T22:54:15.106Z,102873.03
2023-05-25T22:56:43.316Z,102866.00
2023-05-25T22:59:11.533Z,102876.53
2023-05-25T23:01:39.555Z,102880.03
2023-05-25T23:04:07.728Z,102880.03
2023-05-25T23:06:36.629Z,102875.66
2023-05-25T23:09:04.599Z,102879.13
2023-05-25T23:11:33.945Z,102877.38
2023-05-25T23:14:01.946Z,102879.13
2023-05-25T23:16:30.086Z,102887.03
2023-05-25T23:18:58.107Z,102890.53
2023-05-25T23:21:26.059Z,102888.78
2023-05-25T23:23:57.199Z,102892.25
2023-05-25T23:26:25.221Z,102894.03
2023-05-25T23:28:54.581Z,102896.66
2023-05-25T23:31:22.675Z,102892.25
2023-05-25T23:33:50.642Z,102891.38
2023-05-25T23:36:18.609Z,102887.88
2023-05-25T23:38:46.776Z,102894.88
2023-05-25T23:41:16.548Z,102894.03
2023-05-25T23:43:44.556Z,102898.41
2023-05-25T23:46:14.665Z,102897.53
2023-05-25T23:48:42.731Z,102906.28
2023-05-25T23:51:11.278Z,102894.91
2023-05-25T23:53:39.409Z,102902.78
2023-05-25T23:56:07.928Z,102892.25
2023-05-25T23:58:35.903Z,102893.09
